D/T METAR WX W/DIR W/SPE G/SPE TEMP DEWP
22/01/20 08:20 EGUB 220820Z 21002KT 0400 FG VV/// 04/04 Q1037 NOSIG RMK RED RED FG SSW (210°) 2.3mph 4°C 4°C
22/01/20 06:50 EGUB 220650Z 00000KT 0100 FG VV/// 03/03 Q1037 RMK RED FG N (0°) 3°C 3°C
22/01/20 05:50 EGUB 220550Z AUTO 03001KT 0250 // OVC002/// 03/03 Q1037 NNE (30°) 1.2mph 3°C 3°C
22/01/20 04:50 EGUB 220450Z AUTO 18001KT 0300 // OVC002/// 03/03 Q1037 S (180°) 1.2mph 3°C 3°C
22/01/20 03:50 EGUB 220350Z AUTO 00000KT 0400 // OVC002/// 03/03 Q1038 N (0°) 3°C 3°C
22/01/20 02:50 EGUB 220250Z AUTO 18002KT 3700 // OVC003/// 03/02 Q1038 S (180°) 2.3mph 3°C 2°C
22/01/20 01:50 EGUB 220150Z AUTO 18001KT 6000 // OVC004/// 02/02 Q1039 S (180°) 1.2mph 2°C 2°C
22/01/20 00:50 EGUB 220050Z AUTO 24001KT 5000 // BKN005/// BKN011/// 02/02 Q1039 WSW (240°) 1.2mph 2°C 2°C
21/01/20 23:50 EGUB 212350Z AUTO 29001KT 8000 // FEW007/// OVC012/// 02/02 Q1039 WNW (290°) 1.2mph 2°C 2°C
21/01/20 22:50 EGUB 212250Z AUTO 00000KT 9000 // BKN014/// BKN021/// 02/02 Q1039 N (0°) 2°C 2°C
21/01/20 21:50 EGUB 212150Z AUTO 00000KT 6000 // OVC020/// 01/01 Q1039 N (0°) 1°C 1°C
21/01/20 20:50 EGUB 212050Z AUTO 19003KT 7000 // OVC021/// 00/00 Q1039 S (190°) 3.5mph 0°C 0°C
21/01/20 19:50 EGUB 211950Z AUTO 00000KT 5000 // BKN022/// M01/M02 Q1040 N (0°) -1°C -2°C
21/01/20 19:20 EGUB 211920Z 17001KT 9999 BKN022 M00/M01 Q1040 BECMG 7000 HZ BKN014 RMK WHT BECMG GRN S (170°) 1.2mph 0°C -1°C
21/01/20 18:50 EGUB 211850Z 00000KT 9999 SCT022 M01/M01 Q1040 BECMG 7000 HZ RMK WHT BECMG WHT N (0°) -1°C -1°C
21/01/20 18:20 EGUB 211820Z 15001KT 9999 FEW022 M02/M03 Q1040 BECMG 7000 HZ SCT020 RMK BLU BECMG WHT SSE (150°) 1.2mph -2°C -3°C
21/01/20 17:50 EGUB 211750Z 18002KT 9999 FEW012 M01/M02 Q1040 BECMG 7000 HZ SCT018 RMK BLU BECMG WHT S (180°) 2.3mph -1°C -2°C
21/01/20 17:20 EGUB 211720Z 17003KT 9999 FEW012 02/01 Q1040 BECMG 6000 HZ SCT018 RMK BLU BECMG WHT S (170°) 3.5mph 2°C 1°C
21/01/20 16:50 EGUB 211650Z 20001KT 9999 FEW012 03/01 Q1040 BECMG 7000 HZ RMK BLU BECMG WHT SSW (200°) 1.2mph 3°C 1°C
21/01/20 16:20 EGUB 211620Z 23001KT 9999 FEW012 04/01 Q1040 BECMG 7000 HZ RMK BLU BECMG WHT SW (230°) 1.2mph 4°C 1°C
21/01/20 15:50 EGUB 211550Z 24001KT 9999 FEW012 06/02 Q1040 BECMG 7000 HZ RMK BLU BECMG WHT WSW (240°) 1.2mph 6°C 2°C
21/01/20 15:20 EGUB 211520Z 00000KT 9999 FEW012 06/03 Q1040 NOSIG RMK BLU BLU N (0°) 6°C 3°C
21/01/20 14:50 EGUB 211450Z 32002KT 9999 FEW014 06/03 Q1040 NOSIG RMK BLU BLU NW (320°) 2.3mph 6°C 3°C
21/01/20 14:20 EGUB 211420Z 31002KT 9999 FEW012 06/03 Q1040 NOSIG RMK BLU BLU NW (310°) 2.3mph 6°C 3°C
21/01/20 13:20 EGUB 211320Z 21003KT 9999 FEW015 05/03 Q1041 NOSIG RMK BLU BLU SSW (210°) 3.5mph 5°C 3°C
21/01/20 12:50 EGUB 211250Z 19002KT 6000 HZ FEW250 04/04 Q1041 BECMG 9999 NSW RMK WHT BECMG BLU HZ S (190°) 2.3mph 4°C 4°C
21/01/20 12:20 EGUB 211220Z 19002KT 4000 BR FEW004 04/04 Q1042 BECMG 7000 RMK GRN BECMG WHT BR S (190°) 2.3mph 4°C 4°C
21/01/20 11:38 EGUB 211138Z 18003KT 3000 0800W PRFG BR FEW000 01/01 Q1042 BECMG 5000 RMK AMB BECMG WHT PRFG BR S (180°) 3.5mph 1°C 1°C
21/01/20 11:03 EGUB 211103Z 15001KT 1600 0800W PRFG BR SCT000 00/00 Q1042 BECMG 2500 FEW003 RMK RED BECMG YLO1 PRFG BR SSE (150°) 1.2mph 0°C 0°C
21/01/20 10:20 EGUB 211020Z 01001KT 0300 FZFG BKN000 M01/M01 Q1042 BECMG 0800 FG RMK RED BECMG RED FZFG N (10°) 1.2mph -1°C -1°C
21/01/20 09:50 EGUB 210950Z 00000KT 0100 FZFG BKN000 M01/M01 Q1043 BECMG 0800 FG RMK RED BECMG RED FZFG N (0°) -1°C -1°C
21/01/20 09:21 EGUB 210921Z 18003KT 0300 FZFG BKN000 M01/M01 Q1043 BECMG 0800 FG RMK RED BECMG RED FZFG S (180°) 3.5mph -1°C -1°C
21/01/20 08:50 EGUB 210850Z 19002KT 0300 FZFG BKN000 M01/M01 Q1043 BECMG 0800 FG RMK RED BECMG RED FZFG S (190°) 2.3mph -1°C -1°C
21/01/20 08:20 EGUB 210820Z 20001KT 0200 FZFG VV/// M01/M01 Q1043 NOSIG RMK RED RED FZFG SSW (200°) 1.2mph -1°C -1°C
21/01/20 07:50 EGUB 210750Z 27001KT 0200 FZFG VV/// M02/M02 Q1043 NOSIG RMK RED RED FZFG W (270°) 1.2mph -2°C -2°C
21/01/20 07:21 EGUB 210721Z 29001KT 0200 FZFG VV/// M02/M03 Q1042 NOSIG RMK RED RED FZFG WNW (290°) 1.2mph -2°C -3°C
21/01/20 06:50 EGUB 210650Z 00000KT 0200 FZFG VV/// M03/M03 Q1042 NOSIG RMK RED RED FZFG N (0°) -3°C -3°C
21/01/20 05:50 EGUB 210550Z AUTO 18002KT 0100 // VV/// M04/M05 Q1042 S (180°) 2.3mph -4°C -5°C
21/01/20 04:50 EGUB 210450Z AUTO 00000KT 0250 // BKN001/// M04/M05 Q1042 N (0°) -4°C -5°C
21/01/20 03:50 EGUB 210350Z AUTO 25001KT 0500 // FEW007/// M04/M05 Q1042 WSW (250°) 1.2mph -4°C -5°C
21/01/20 02:50 EGUB 210250Z AUTO 00000KT 0150 // BKN003/// M04/M05 Q1043 N (0°) -4°C -5°C
21/01/20 01:50 EGUB 210150Z AUTO 19001KT 1400 // FEW005/// M05/M05 Q1043 S (190°) 1.2mph -5°C -5°C
21/01/20 00:50 EGUB 210050Z AUTO 09002KT 5000 // NCD M05/M05 Q1044 E (90°) 2.3mph -5°C -5°C
20/01/20 23:50 EGUB 202350Z AUTO 00000KT 5000 // NCD M04/M05 Q1044 N (0°) -4°C -5°C
20/01/20 22:50 EGUB 202250Z AUTO 08001KT 4500 // NCD M04/M04 Q1045 E (80°) 1.2mph -4°C -4°C
20/01/20 21:50 EGUB 202150Z AUTO 10001KT 6000 // NCD M04/M05 Q1045 E (100°) 1.2mph -4°C -5°C
20/01/20 20:50 EGUB 202050Z AUTO 06002KT 6000 // NCD M04/M04 Q1045 ENE (60°) 2.3mph -4°C -4°C
20/01/20 19:50 EGUB 201950Z AUTO 11001KT 8000 // NCD M02/M03 Q1045 ESE (110°) 1.2mph -2°C -3°C